createdAt,value
2022-08-25T00:00:24.338Z,22.30
2022-08-25T00:02:56.452Z,22.24
2022-08-25T00:05:32.350Z,22.26
2022-08-25T00:08:06.641Z,22.23
2022-08-25T00:10:42.579Z,22.24
2022-08-25T00:13:13.104Z,22.14
2022-08-25T00:15:43.102Z,22.12
2022-08-25T00:18:19.562Z,22.06
2022-08-25T00:20:50.375Z,22.04
2022-08-25T00:23:24.722Z,22.04
2022-08-25T00:25:57.126Z,22.08
2022-08-25T00:28:27.333Z,22.06
2022-08-25T00:30:57.685Z,22.05
2022-08-25T00:33:28.303Z,22.02
2022-08-25T00:35:58.310Z,21.97
2022-08-25T00:38:27.932Z,21.80
2022-08-25T00:41:08.868Z,21.50
2022-08-25T00:43:47.872Z,21.46
2022-08-25T00:46:23.013Z,21.45
2022-08-25T00:48:58.213Z,21.41
2022-08-25T00:51:36.617Z,21.45
2022-08-25T00:54:11.197Z,21.44
2022-08-25T00:56:47.959Z,21.37
2022-08-25T00:59:19.116Z,21.30
2022-08-25T01:01:49.568Z,21.41
2022-08-25T01:04:19.801Z,21.33
2022-08-25T01:06:51.978Z,21.30
2022-08-25T01:09:22.886Z,21.32
2022-08-25T01:11:56.176Z,21.30
2022-08-25T01:14:27.957Z,21.31
2022-08-25T01:16:58.320Z,21.26
2022-08-25T01:19:28.987Z,21.28
2022-08-25T01:22:05.870Z,21.22
2022-08-25T01:24:42.143Z,21.17
2022-08-25T01:27:12.823Z,21.14
2022-08-25T01:29:43.192Z,21.13
2022-08-25T01:32:15.305Z,21.15
2022-08-25T01:34:48.948Z,21.12
2022-08-25T01:37:24.774Z,21.18
2022-08-25T01:39:58.953Z,21.15
2022-08-25T01:42:38.092Z,21.12
2022-08-25T01:48:33.981Z,21.06
2022-08-25T01:51:03.970Z,20.99
2022-08-25T01:53:36.230Z,20.98
2022-08-25T01:56:12.306Z,20.91
2022-08-25T01:58:46.367Z,20.84
2022-08-25T02:01:20.711Z,20.80
2022-08-25T02:03:53.801Z,20.77
2022-08-25T02:06:28.889Z,20.76
2022-08-25T02:09:05.934Z,20.69
2022-08-25T02:11:36.307Z,20.66
2022-08-25T02:14:09.947Z,20.66
2022-08-25T02:16:41.748Z,20.63
2022-08-25T02:19:13.474Z,20.65
2022-08-25T02:21:43.235Z,20.64
2022-08-25T02:24:16.134Z,20.62
2022-08-25T02:26:47.115Z,20.63
2022-08-25T02:29:17.804Z,20.55
2022-08-25T02:31:51.249Z,20.52
2022-08-25T02:34:20.970Z,20.54
2022-08-25T02:36:50.872Z,20.52
2022-08-25T02:39:24.201Z,20.51
2022-08-25T02:41:53.825Z,20.49
2022-08-25T02:44:23.575Z,20.31
2022-08-25T02:46:53.420Z,20.19
2022-08-25T02:49:24.585Z,20.24
2022-08-25T02:51:54.827Z,20.17
2022-08-25T02:54:27.328Z,20.10
2022-08-25T02:56:57.426Z,20.06
2022-08-25T02:59:28.910Z,20.09
2022-08-25T03:01:59.490Z,20.11
2022-08-25T03:04:32.207Z,20.15
2022-08-25T03:07:06.890Z,20.14
2022-08-25T03:09:40.309Z,20.03
2022-08-25T03:12:12.053Z,19.98
2022-08-25T03:14:42.374Z,19.96
2022-08-25T03:17:14.285Z,19.90
2022-08-25T03:19:44.435Z,19.85
2022-08-25T03:22:14.691Z,19.89
2022-08-25T03:24:47.588Z,19.93
2022-08-25T03:27:15.644Z,19.98
2022-08-25T03:29:46.004Z,20.02
2022-08-25T03:32:16.059Z,20.02
2022-08-25T03:34:48.148Z,20.02
2022-08-25T03:37:19.666Z,20.05
2022-08-25T03:39:52.320Z,19.99
2022-08-25T03:42:26.691Z,20.05
2022-08-25T03:44:56.501Z,19.98
2022-08-25T03:47:29.589Z,20.05
2022-08-25T03:49:59.862Z,20.01
2022-08-25T03:52:29.605Z,20.02
2022-08-25T03:55:02.333Z,20.03
2022-08-25T03:57:32.260Z,20.01
2022-08-25T04:00:02.059Z,20.03
2022-08-25T04:02:33.817Z,20.04
2022-08-25T04:05:03.945Z,19.98
2022-08-25T04:07:33.825Z,19.95
2022-08-25T04:10:07.318Z,19.90
2022-08-25T04:12:38.088Z,19.86
2022-08-25T04:15:08.639Z,19.82
2022-08-25T04:17:42.017Z,19.78
2022-08-25T04:20:15.022Z,19.79
2022-08-25T04:22:45.191Z,19.76
2022-08-25T04:25:18.201Z,19.76
2022-08-25T04:27:48.271Z,19.81
2022-08-25T04:30:18.912Z,19.83
2022-08-25T04:32:51.045Z,19.83
2022-08-25T04:35:23.380Z,19.79
2022-08-25T04:37:53.361Z,19.78
2022-08-25T04:40:29.104Z,19.75
2022-08-25T04:42:59.172Z,19.78
2022-08-25T04:45:29.303Z,19.79
2022-08-25T04:48:01.335Z,19.79
2022-08-25T04:50:31.268Z,19.80
2022-08-25T04:53:01.438Z,19.76
2022-08-25T04:55:34.056Z,19.79
2022-08-25T04:58:03.974Z,19.78
2022-08-25T05:00:33.989Z,19.79
2022-08-25T05:03:04.199Z,19.79
2022-08-25T05:05:34.844Z,19.80
2022-08-25T05:08:05.330Z,19.81
2022-08-25T05:10:41.708Z,19.88
2022-08-25T05:13:13.597Z,19.93
2022-08-25T05:15:56.019Z,19.99
2022-08-25T05:18:31.460Z,20.04
2022-08-25T05:21:06.721Z,20.16
2022-08-25T05:23:37.890Z,20.25
2022-08-25T05:26:19.102Z,20.39
2022-08-25T05:28:50.601Z,20.50
2022-08-25T05:31:21.437Z,20.72
2022-08-25T05:33:54.595Z,20.88
2022-08-25T05:36:26.982Z,21.05
2022-08-25T05:38:57.800Z,21.16
2022-08-25T05:41:33.657Z,21.20
2022-08-25T05:44:03.426Z,21.43
2022-08-25T05:46:33.470Z,21.56
2022-08-25T05:49:03.955Z,21.82
2022-08-25T05:51:34.411Z,21.85
2022-08-25T05:54:04.233Z,21.90
2022-08-25T05:56:37.239Z,22.03
2022-08-25T05:59:09.440Z,22.16
2022-08-25T06:01:53.185Z,22.30
2022-08-25T06:04:23.538Z,22.47
2022-08-25T06:06:55.927Z,22.39
2022-08-25T06:09:27.224Z,22.60
2022-08-25T06:11:59.868Z,22.59
2022-08-25T06:14:30.395Z,22.57
2022-08-25T06:17:00.602Z,22.62
2022-08-25T06:19:31.254Z,22.89
2022-08-25T06:22:01.440Z,23.11
2022-08-25T06:24:33.324Z,23.22
2022-08-25T06:27:06.213Z,23.37
2022-08-25T06:29:36.124Z,23.63
2022-08-25T06:32:07.929Z,23.73
2022-08-25T06:34:37.695Z,23.93
2022-08-25T06:37:07.511Z,24.07
2022-08-25T06:39:37.968Z,24.21
2022-08-25T06:42:10.936Z,24.19
2022-08-25T06:44:42.271Z,24.47
2022-08-25T06:47:12.372Z,24.62
2022-08-25T06:49:42.822Z,24.88
2022-08-25T06:52:13.324Z,25.22
2022-08-25T06:54:43.333Z,25.37
2022-08-25T06:57:15.865Z,25.39
2022-08-25T06:59:46.900Z,25.23
2022-08-25T07:02:21.870Z,25.76
2022-08-25T07:04:53.827Z,25.83
2022-08-25T07:07:24.050Z,25.85
2022-08-25T07:10:04.306Z,25.68
2022-08-25T07:12:37.289Z,25.90
2022-08-25T07:15:19.672Z,25.94
2022-08-25T07:17:50.907Z,25.98
2022-08-25T07:20:21.312Z,26.19
2022-08-25T07:22:51.397Z,26.32
2022-08-25T07:25:21.210Z,26.33
2022-08-25T07:27:58.220Z,26.65
2022-08-25T07:30:30.107Z,26.77
2022-08-25T07:33:00.760Z,27.12
2022-08-25T07:35:37.594Z,27.48
2022-08-25T07:38:10.310Z,27.51
2022-08-25T07:40:43.226Z,27.88
2022-08-25T07:43:15.849Z,27.95
2022-08-25T07:45:49.430Z,28.15
2022-08-25T07:48:20.816Z,27.84
2022-08-25T07:50:51.979Z,28.23
2022-08-25T07:53:26.502Z,28.47
2022-08-25T07:55:56.310Z,28.61
2022-08-25T07:58:29.605Z,28.64
2022-08-25T08:00:59.748Z,28.60
2022-08-25T08:03:45.319Z,28.85
2022-08-25T08:06:22.598Z,28.98
2022-08-25T08:08:57.877Z,29.19
2022-08-25T08:11:31.565Z,29.80
2022-08-25T08:14:06.847Z,29.94
2022-08-25T08:16:37.620Z,29.45
2022-08-25T08:19:08.652Z,29.70
2022-08-25T08:21:39.921Z,30.13
2022-08-25T08:24:31.169Z,30.12
2022-08-25T08:27:00.264Z,30.03
2022-08-25T08:29:32.746Z,30.31
2022-08-25T08:32:03.110Z,29.36
2022-08-25T08:34:33.901Z,29.43
2022-08-25T08:37:04.611Z,28.85
2022-08-25T08:39:34.460Z,29.10
2022-08-25T08:42:22.488Z,28.40
2022-08-25T08:45:15.930Z,28.51
2022-08-25T08:47:57.425Z,27.82
2022-08-25T08:50:34.847Z,27.96
2022-08-25T08:53:12.117Z,28.00
2022-08-25T08:55:51.889Z,27.79
2022-08-25T08:58:27.322Z,28.05
2022-08-25T09:01:02.095Z,28.27
2022-08-25T09:03:39.662Z,28.34
2022-08-25T09:06:14.487Z,28.04
2022-08-25T09:08:46.322Z,27.76
2022-08-25T09:11:23.849Z,27.69
2022-08-25T09:14:11.913Z,27.78
2022-08-25T09:16:58.615Z,28.08
2022-08-25T09:19:47.360Z,27.96
2022-08-25T09:22:35.256Z,28.18
2022-08-25T09:25:22.129Z,28.60
2022-08-25T09:28:10.243Z,29.82
2022-08-25T09:30:47.964Z,30.85
2022-08-25T09:33:26.986Z,30.78
2022-08-25T09:35:58.534Z,30.99
2022-08-25T09:38:29.653Z,32.23
2022-08-25T09:41:01.400Z,33.27
2022-08-25T09:43:37.115Z,33.65
2022-08-25T09:46:13.983Z,33.82
2022-08-25T09:48:57.091Z,33.27
2022-08-25T09:51:42.142Z,33.71
2022-08-25T09:54:25.370Z,33.56
2022-08-25T09:57:01.101Z,32.32
2022-08-25T09:59:35.904Z,31.34
2022-08-25T10:02:08.425Z,30.84
2022-08-25T10:04:44.963Z,30.27
2022-08-25T10:07:26.878Z,29.74
2022-08-25T10:09:59.517Z,29.91
2022-08-25T10:12:38.009Z,29.68
2022-08-25T10:15:29.999Z,29.14
2022-08-25T10:18:18.948Z,29.65
2022-08-25T10:21:04.665Z,31.22
2022-08-25T10:23:40.960Z,32.34
2022-08-25T10:26:23.533Z,31.47
2022-08-25T10:29:10.128Z,31.37
2022-08-25T10:31:44.254Z,32.21
2022-08-25T10:34:36.685Z,31.57
2022-08-25T10:37:21.729Z,30.79
2022-08-25T10:40:06.523Z,30.56
2022-08-25T10:42:44.291Z,31.13
2022-08-25T10:45:35.686Z,33.08
2022-08-25T10:48:27.701Z,33.85
2022-08-25T10:51:02.039Z,34.44
2022-08-25T10:53:51.110Z,34.38
2022-08-25T10:56:26.586Z,33.84
2022-08-25T10:59:16.024Z,33.04
2022-08-25T11:02:05.813Z,32.40
2022-08-25T11:04:42.173Z,32.43
2022-08-25T11:07:19.642Z,32.18
2022-08-25T11:09:57.791Z,32.49
2022-08-25T11:12:34.874Z,31.92
2022-08-25T11:15:10.604Z,31.45
2022-08-25T11:17:46.360Z,31.42
2022-08-25T11:20:27.078Z,31.53
2022-08-25T11:23:12.348Z,31.49
2022-08-25T11:25:48.132Z,31.12
2022-08-25T11:28:26.422Z,30.61
2022-08-25T11:30:59.190Z,31.02
2022-08-25T11:33:32.465Z,32.19
2022-08-25T11:36:08.974Z,32.10
2022-08-25T11:39:00.426Z,32.40
2022-08-25T11:41:45.277Z,32.86
2022-08-25T11:44:29.965Z,33.08
2022-08-25T11:47:21.693Z,33.97
2022-08-25T11:49:57.632Z,33.61
2022-08-25T11:52:49.355Z,32.69
2022-08-25T11:55:24.939Z,32.01
2022-08-25T11:58:22.158Z,31.96
2022-08-25T12:00:51.890Z,31.81
2022-08-25T12:03:51.844Z,31.41
2022-08-25T12:06:26.628Z,31.16
2022-08-25T12:09:23.316Z,30.92
2022-08-25T12:13:35.816Z,30.99
2022-08-25T12:16:13.400Z,31.21
2022-08-25T12:18:51.481Z,30.85
2022-08-25T12:21:40.743Z,30.87
2022-08-25T12:24:27.764Z,30.70
2022-08-25T12:27:02.535Z,30.67
2022-08-25T12:30:03.019Z,30.57
2022-08-25T12:33:04.687Z,30.90
2022-08-25T12:35:44.267Z,31.67
2022-08-25T12:38:34.980Z,31.85
2022-08-25T12:41:13.939Z,31.77
2022-08-25T12:43:48.874Z,32.14
2022-08-25T12:46:42.854Z,32.21
2022-08-25T12:49:35.768Z,32.04
2022-08-25T12:52:11.602Z,32.37
2022-08-25T12:54:54.799Z,31.95
2022-08-25T12:57:48.041Z,31.74
2022-08-25T13:06:34.874Z,31.26
2022-08-25T13:10:04.537Z,31.32
2022-08-25T13:12:51.459Z,31.52
2022-08-25T13:15:34.186Z,31.77
2022-08-25T13:18:26.834Z,31.89
2022-08-25T13:21:13.935Z,32.00
2022-08-25T13:23:54.020Z,32.51
2022-08-25T13:26:34.459Z,32.13
2022-08-25T13:29:17.875Z,32.10
2022-08-25T13:31:59.660Z,32.68
2022-08-25T13:34:35.185Z,33.25
2022-08-25T13:37:22.616Z,33.11
2022-08-25T13:40:11.171Z,32.80
2022-08-25T13:42:44.292Z,32.55
2022-08-25T13:45:20.369Z,32.88
2022-08-25T13:47:55.920Z,33.60
2022-08-25T13:50:37.034Z,33.77
2022-08-25T13:53:11.740Z,33.89
2022-08-25T13:55:53.894Z,34.27
2022-08-25T13:58:39.458Z,33.96
2022-08-25T14:01:46.092Z,32.74
2022-08-25T14:04:32.593Z,32.40
2022-08-25T14:07:19.637Z,32.21
2022-08-25T14:09:55.412Z,32.60
2022-08-25T14:12:39.772Z,32.82
2022-08-25T14:15:14.309Z,32.52
2022-08-25T14:17:49.878Z,32.78
2022-08-25T14:20:28.946Z,32.88
2022-08-25T14:23:01.961Z,33.35
2022-08-25T14:25:33.026Z,33.14
2022-08-25T14:28:10.889Z,33.21
2022-08-25T14:30:47.258Z,32.75
2022-08-25T14:33:19.857Z,32.79
2022-08-25T14:35:54.529Z,32.64
2022-08-25T14:38:27.337Z,31.96
2022-08-25T14:41:00.269Z,32.14
2022-08-25T14:43:33.476Z,32.16
2022-08-25T14:46:06.324Z,31.87
2022-08-25T14:48:44.087Z,31.97
2022-08-25T14:51:15.200Z,32.14
2022-08-25T14:53:45.807Z,32.47
2022-08-25T14:56:15.525Z,32.47
2022-08-25T14:58:54.220Z,32.58
2022-08-25T15:01:28.866Z,32.37
2022-08-25T15:04:04.903Z,32.20
2022-08-25T15:06:35.046Z,31.89
2022-08-25T15:09:11.867Z,31.76
2022-08-25T15:11:45.374Z,31.58
2022-08-25T15:14:28.492Z,31.80
2022-08-25T15:17:05.140Z,32.26
2022-08-25T15:19:39.546Z,32.36
2022-08-25T15:22:09.199Z,32.50
2022-08-25T15:24:40.865Z,33.02
2022-08-25T15:27:13.229Z,32.93
2022-08-25T15:29:45.972Z,33.16
2022-08-25T15:32:18.532Z,33.29
2022-08-25T15:34:51.654Z,33.59
2022-08-25T15:37:22.204Z,33.26
2022-08-25T15:39:54.578Z,33.10
2022-08-25T15:42:25.755Z,32.91
2022-08-25T15:45:00.794Z,32.90
2022-08-25T15:47:40.701Z,32.56
2022-08-25T15:50:14.635Z,32.14
2022-08-25T15:52:46.458Z,31.87
2022-08-25T15:55:21.424Z,31.95
2022-08-25T15:57:51.452Z,31.83
2022-08-25T16:00:24.975Z,31.42
2022-08-25T16:02:55.189Z,31.43
2022-08-25T16:05:30.119Z,31.45
2022-08-25T16:07:59.897Z,31.21
2022-08-25T16:10:29.930Z,31.17
2022-08-25T16:13:01.095Z,31.25
2022-08-25T16:15:33.923Z,31.21
2022-08-25T16:18:05.204Z,31.06
2022-08-25T16:20:37.238Z,30.92
2022-08-25T16:23:08.243Z,30.78
2022-08-25T16:25:43.512Z,30.67
2022-08-25T16:28:24.456Z,30.45
2022-08-25T16:30:57.335Z,30.31
2022-08-25T16:33:27.373Z,30.17
2022-08-25T16:36:06.397Z,30.17
2022-08-25T16:38:41.539Z,30.07
2022-08-25T16:41:12.612Z,29.99
2022-08-25T16:43:43.378Z,29.94
2022-08-25T16:46:18.416Z,29.88
2022-08-25T16:48:49.020Z,29.79
2022-08-25T16:51:22.485Z,29.78
2022-08-25T16:54:10.980Z,29.73
2022-08-25T16:56:44.386Z,29.68
2022-08-25T16:59:18.176Z,29.56
2022-08-25T17:01:51.668Z,29.61
2022-08-25T17:04:29.583Z,29.56
2022-08-25T17:07:11.568Z,29.47
2022-08-25T17:09:43.759Z,29.38
2022-08-25T17:12:17.620Z,29.20
2022-08-25T17:14:47.603Z,29.22
2022-08-25T17:17:20.198Z,29.14
2022-08-25T17:19:53.492Z,29.13
2022-08-25T17:22:24.753Z,29.02
2022-08-25T17:25:00.860Z,29.10
2022-08-25T17:27:33.029Z,29.04
2022-08-25T17:30:03.075Z,28.95
2022-08-25T17:32:36.540Z,28.91
2022-08-25T17:35:06.905Z,28.87
2022-08-25T17:37:36.464Z,28.84
2022-08-25T17:40:11.110Z,28.85
2022-08-25T17:42:44.012Z,28.75
2022-08-25T17:45:15.552Z,28.68
2022-08-25T17:47:48.320Z,28.63
2022-08-25T17:50:19.640Z,28.57
2022-08-25T17:52:49.907Z,28.52
2022-08-25T17:55:23.339Z,28.50
2022-08-25T17:57:53.967Z,28.42
2022-08-25T18:00:25.609Z,28.34
2022-08-25T18:03:00.087Z,28.28
2022-08-25T18:05:31.362Z,28.22
2022-08-25T18:08:03.675Z,28.07
2022-08-25T18:10:37.359Z,28.08
2022-08-25T18:13:08.087Z,27.99
2022-08-25T18:15:42.373Z,27.93
2022-08-25T18:18:16.388Z,27.83
2022-08-25T18:20:48.775Z,27.86
2022-08-25T18:23:20.422Z,27.76
2022-08-25T18:26:01.055Z,27.72
2022-08-25T18:28:32.665Z,27.58
2022-08-25T18:31:04.991Z,27.60
2022-08-25T18:33:42.176Z,27.55
2022-08-25T18:36:14.423Z,27.49
2022-08-25T18:38:58.344Z,27.40
2022-08-25T18:41:30.159Z,27.31
2022-08-25T18:44:00.391Z,27.27
2022-08-25T18:46:30.516Z,27.24
2022-08-25T18:49:04.583Z,27.27
2022-08-25T18:51:35.425Z,27.24
2022-08-25T18:54:06.226Z,27.17
2022-08-25T18:56:37.815Z,27.11
2022-08-25T18:59:10.431Z,27.09
2022-08-25T19:01:41.811Z,26.95
2022-08-25T19:04:16.997Z,26.91
2022-08-25T19:06:47.818Z,26.81
2022-08-25T19:09:22.622Z,26.77
2022-08-25T19:11:55.624Z,26.69
2022-08-25T19:14:26.554Z,26.60
2022-08-25T19:17:00.841Z,26.57
2022-08-25T19:19:34.943Z,26.56
2022-08-25T19:22:16.575Z,26.44
2022-08-25T19:24:58.709Z,26.41
2022-08-25T19:27:33.273Z,26.35
2022-08-25T19:30:04.034Z,26.34
2022-08-25T19:32:34.164Z,26.31
2022-08-25T19:35:08.175Z,26.29
2022-08-25T19:37:40.188Z,26.25
2022-08-25T19:40:13.631Z,26.25
2022-08-25T19:42:50.045Z,26.19
2022-08-25T19:45:26.167Z,26.14
2022-08-25T19:47:58.762Z,26.10
2022-08-25T19:50:31.551Z,26.05
2022-08-25T19:53:01.865Z,26.00
2022-08-25T19:55:35.126Z,25.94
2022-08-25T19:58:05.853Z,25.94
2022-08-25T20:00:40.487Z,25.93
2022-08-25T20:03:11.336Z,25.87
2022-08-25T20:05:44.029Z,25.81
2022-08-25T20:08:14.123Z,25.78
2022-08-25T20:10:46.388Z,25.76
2022-08-25T20:13:18.518Z,25.67
2022-08-25T20:15:49.086Z,25.75
2022-08-25T20:18:22.044Z,25.73
2022-08-25T20:20:56.651Z,25.72
2022-08-25T20:23:39.367Z,25.62
2022-08-25T20:26:11.427Z,25.65
2022-08-25T20:28:42.777Z,25.66
2022-08-25T20:31:15.464Z,25.64
2022-08-25T20:33:46.094Z,25.65
2022-08-25T20:36:21.712Z,25.59
2022-08-25T20:38:52.010Z,25.57
2022-08-25T20:41:22.248Z,25.58
2022-08-25T20:43:52.403Z,25.57
2022-08-25T20:46:22.528Z,25.44
2022-08-25T20:48:53.484Z,25.53
2022-08-25T20:51:29.035Z,25.53
2022-08-25T20:54:00.475Z,25.48
2022-08-25T20:56:33.676Z,25.44
2022-08-25T20:59:05.241Z,25.41
2022-08-25T21:01:42.633Z,25.41
2022-08-25T21:04:16.709Z,25.37
2022-08-25T21:06:52.261Z,25.41
2022-08-25T21:09:24.854Z,25.39
2022-08-25T21:11:58.922Z,25.39
2022-08-25T21:14:29.752Z,25.39
2022-08-25T21:17:00.087Z,25.34
2022-08-25T21:19:31.996Z,25.33
2022-08-25T21:22:04.801Z,25.33
2022-08-25T21:24:34.769Z,25.28
2022-08-25T21:27:06.950Z,25.19
2022-08-25T21:29:37.540Z,25.15
2022-08-25T21:32:08.028Z,25.15
2022-08-25T21:34:39.969Z,25.08
2022-08-25T21:37:12.606Z,25.13
2022-08-25T21:39:43.650Z,25.12
2022-08-25T21:42:15.086Z,25.13
2022-08-25T21:44:45.207Z,25.12
2022-08-25T21:47:21.225Z,25.09
2022-08-25T21:49:52.442Z,24.99
2022-08-25T21:52:24.966Z,24.98
2022-08-25T21:54:54.704Z,24.94
2022-08-25T21:57:26.155Z,24.90
2022-08-25T21:59:56.357Z,24.86
2022-08-25T22:02:28.481Z,24.84
2022-08-25T22:04:58.124Z,24.80
2022-08-25T22:07:34.605Z,24.80
2022-08-25T22:10:12.774Z,24.79
2022-08-25T22:12:46.848Z,24.75
2022-08-25T22:15:18.427Z,24.75
2022-08-25T22:17:49.341Z,24.71
2022-08-25T22:20:20.971Z,24.71
2022-08-25T22:22:54.088Z,24.70
2022-08-25T22:25:23.827Z,24.67
2022-08-25T22:27:57.127Z,24.63
2022-08-25T22:30:29.627Z,24.56
2022-08-25T22:32:59.736Z,24.53
2022-08-25T22:35:30.427Z,24.46
2022-08-25T22:38:06.853Z,24.46
2022-08-25T22:40:43.237Z,24.42
2022-08-25T22:43:13.768Z,24.38
2022-08-25T22:45:43.501Z,24.32
2022-08-25T22:48:13.449Z,24.29
2022-08-25T22:50:43.533Z,24.23
2022-08-25T22:53:17.885Z,24.25
2022-08-25T22:55:47.827Z,24.21
2022-08-25T22:58:22.002Z,24.20
2022-08-25T23:00:51.831Z,24.25
2022-08-25T23:03:21.716Z,24.21
2022-08-25T23:05:51.750Z,24.16
2022-08-25T23:08:38.873Z,24.16
2022-08-25T23:11:12.993Z,24.10
2022-08-25T23:13:44.135Z,24.02
2022-08-25T23:16:15.265Z,24.01
2022-08-25T23:18:47.000Z,23.97
2022-08-25T23:21:30.031Z,23.94
2022-08-25T23:24:08.399Z,23.92
2022-08-25T23:26:38.176Z,23.88
2022-08-25T23:29:18.533Z,23.87
2022-08-25T23:31:50.415Z,23.85
2022-08-25T23:34:21.361Z,23.82
2022-08-25T23:36:51.077Z,23.86
2022-08-25T23:39:24.077Z,23.83
2022-08-25T23:41:55.061Z,23.81
2022-08-25T23:44:26.784Z,23.79
2022-08-25T23:46:57.961Z,23.82
2022-08-25T23:49:28.054Z,23.81
2022-08-25T23:51:58.269Z,23.77
2022-08-25T23:54:31.771Z,23.75
2022-08-25T23:57:01.960Z,23.77
2022-08-25T23:59:33.325Z,23.80
